Time;durP1;ratioP1;P1;durP2;ratioP2;P2;SDS_P1;SDS_P2;PMS_P1;PMS_P2;Temp;Humidity;BMP_temperature;BMP_pressure;BME280_temperature;BME280_humidity;BME280_pressure;Samples;Min_cycle;Max_cycle;Signal;HPM_P1;HPM_P2
2022/06/16 00:01:29;;;;;;;;;9.00;8.75;;;;;25.24;41.13;101156.59;5111219;27;46186;-53
2022/06/16 00:03:54;;;;;;;;;10.25;9.25;;;;;25.24;41.20;101158.44;5113673;27;45361;-51
2022/06/16 00:06:20;;;;;;;;;10.00;9.00;;;;;25.22;41.18;101158.56;5100603;27;75606;-51
2022/06/16 00:08:45;;;;;;;;;9.00;9.00;;;;;25.23;41.13;101159.41;5108076;27;45325;-47
2022/06/16 00:11:16;;;;;;;;;10.75;8.50;;;;;25.21;41.04;101164.88;5111258;27;45509;-50
2022/06/16 00:13:42;;;;;;;;;10.00;10.00;;;;;25.22;41.06;101165.75;5106714;27;45384;-52
2022/06/16 00:16:09;;;;;;;;;9.25;8.00;;;;;25.21;41.27;101167.56;5103516;27;55899;-52
2022/06/16 00:18:36;;;;;;;;;8.25;7.25;;;;;25.22;41.10;101168.44;5099981;27;45330;-53
2022/06/16 00:21:02;;;;;;;;;11.00;8.25;;;;;25.21;41.15;101175.59;5104527;27;45291;-50
2022/06/16 00:23:28;;;;;;;;;10.00;8.00;;;;;25.20;41.12;101176.59;5102539;27;45543;-52
2022/06/16 00:25:53;;;;;;;;;8.00;8.00;;;;;25.20;41.07;101171.25;5103757;27;46238;-52
2022/06/16 00:28:18;;;;;;;;;8.50;7.75;;;;;25.19;41.07;101167.69;5106518;27;55228;-50
2022/06/16 00:30:44;;;;;;;;;8.00;6.50;;;;;25.20;40.98;101173.91;5101933;27;47984;-52
2022/06/16 00:33:10;;;;;;;;;12.25;8.00;;;;;25.19;40.97;101178.41;5099463;27;45323;-49
2022/06/16 00:35:35;;;;;;;;;10.00;8.00;;;;;25.20;41.10;101179.28;5103422;27;70548;-50
2022/06/16 00:38:01;;;;;;;;;10.75;8.50;;;;;25.18;40.86;101187.44;5103448;27;45495;-52
2022/06/16 00:40:26;;;;;;;;;10.25;9.00;;;;;25.18;41.05;101190.09;5106015;27;45461;-51
2022/06/16 00:42:52;;;;;;;;;11.25;9.00;;;;;25.18;41.12;101189.25;5100132;27;45324;-52
2022/06/16 00:45:56;;;;;;;;;9.25;7.50;;;;;25.18;41.01;101195.47;5102939;27;46287;-49
2022/06/16 00:48:43;;;;;;;;;12.00;9.50;;;;;25.16;41.05;101192.06;5106999;27;46205;-50
2022/06/16 00:51:11;;;;;;;;;10.75;10.25;;;;;25.16;41.23;101197.41;5104827;27;46311;-53
2022/06/16 00:53:38;;;;;;;;;10.50;10.00;;;;;25.16;41.01;101204.59;5108768;27;45685;-50
2022/06/16 00:56:05;;;;;;;;;11.00;9.00;;;;;25.15;41.23;101206.41;5105808;27;45495;-50
2022/06/16 00:58:32;;;;;;;;;8.00;6.25;;;;;25.14;41.18;101207.41;5095044;27;45314;-50
2022/06/16 01:00:57;;;;;;;;;11.00;10.50;;;;;25.14;41.06;101202.06;5086366;27;45522;-50
2022/06/16 01:06:17;;;;;;;;;10.50;9.75;;;;;25.13;41.08;101212.88;5101450;27;45768;-51
2022/06/16 01:08:43;;;;;;;;;10.00;9.75;;;;;25.14;41.12;101211.91;5111192;27;45800;-51
2022/06/16 01:13:41;;;;;;;;;14.50;10.25;;;;;25.13;41.04;101219.09;5096279;27;45377;-52
2022/06/16 01:14:07;;;;;;;;;9.50;9.50;;;;;25.14;41.03;101217.25;5111490;27;45274;-50
2022/06/16 01:16:37;;;;;;;;;11.50;10.00;;;;;25.13;41.01;101220.94;5102846;27;45446;-50
2022/06/16 01:19:25;;;;;;;;;11.00;10.00;;;;;25.12;40.90;101228.09;5112197;27;45771;-51
2022/06/16 01:21:59;;;;;;;;;8.75;7.25;;;;;25.12;41.18;101227.25;5109987;27;45456;-53
2022/06/16 01:24:27;;;;;;;;;9.75;8.25;;;;;25.12;41.17;101235.28;5111970;27;45422;-52
2022/06/16 01:27:17;;;;;;;;;9.25;8.50;;;;;25.11;41.13;101242.47;5110449;27;45463;-49
2022/06/16 01:30:00;;;;;;;;;8.50;7.50;;;;;25.11;41.14;101238.94;5105483;27;45317;-49
2022/06/16 01:32:34;;;;;;;;;12.00;8.25;;;;;25.11;41.26;101241.63;5097219;27;45491;-50
2022/06/16 01:35:17;;;;;;;;;10.25;9.75;;;;;25.09;41.06;101240.88;5107673;27;45421;-49
2022/06/16 01:37:49;;;;;;;;;14.25;9.00;;;;;25.09;41.10;101243.56;5111336;27;46191;-53
2022/06/16 01:40:38;;;;;;;;;11.75;10.25;;;;;25.08;41.12;101244.53;5111788;27;45462;-53
2022/06/16 01:43:12;;;;;;;;;10.50;9.00;;;;;25.07;41.07;101249.03;5110982;27;45580;-52
2022/06/16 01:45:41;;;;;;;;;10.25;8.50;;;;;25.07;41.45;101253.53;5110535;27;45416;-53
2022/06/16 01:48:08;;;;;;;;;9.50;8.25;;;;;25.06;41.21;101251.84;5106888;27;46144;-50
2022/06/16 01:50:39;;;;;;;;;13.25;10.25;;;;;25.04;41.19;101246.63;5102609;27;46180;-53
2022/06/16 01:53:08;;;;;;;;;13.25;11.00;;;;;25.04;41.31;101259.13;5108190;27;45405;-50
2022/06/16 01:55:37;;;;;;;;;10.75;8.75;;;;;25.04;41.43;101261.81;5103047;27;45473;-52
2022/06/16 01:58:08;;;;;;;;;10.75;10.75;;;;;25.03;41.32;101260.97;5103308;27;46033;-50
2022/06/16 02:00:34;;;;;;;;;13.00;9.75;;;;;25.03;41.17;101269.00;5104013;27;45467;-49
2022/06/16 02:03:07;;;;;;;;;10.50;9.25;;;;;25.02;41.00;101272.69;5111103;27;61760;-52
2022/06/16 02:05:43;;;;;;;;;10.25;9.75;;;;;25.00;41.25;101274.59;5105374;27;45498;-49
2022/06/16 02:08:15;;;;;;;;;12.25;9.25;;;;;25.00;41.11;101270.13;5113122;27;45465;-50
2022/06/16 02:10:44;;;;;;;;;12.00;10.75;;;;;24.99;41.32;101276.44;5102812;27;45633;-51
2022/06/16 02:13:12;;;;;;;;;11.25;10.00;;;;;24.98;41.11;101276.56;5109582;27;45299;-50
2022/06/16 02:15:39;;;;;;;;;13.50;10.50;;;;;24.99;41.17;101276.44;5109877;27;45550;-50
2022/06/16 02:18:09;;;;;;;;;15.25;9.75;;;;;24.99;41.24;101275.59;5104246;27;47103;-49
2022/06/16 02:20:52;;;;;;;;;10.00;10.00;;;;;24.97;41.41;101281.06;5107494;27;45675;-49
2022/06/16 02:23:19;;;;;;;;;11.25;9.50;;;;;24.97;41.06;101269.50;5119858;27;45414;-50
2022/06/16 02:25:45;;;;;;;;;14.50;11.50;;;;;24.97;41.20;101269.50;5108606;27;45323;-52
2022/06/16 02:28:12;;;;;;;;;10.50;8.25;;;;;24.98;41.31;101277.44;5114936;27;45610;-53
2022/06/16 02:30:47;;;;;;;;;11.25;9.50;;;;;24.98;40.92;101273.88;5110475;27;45498;-49
2022/06/16 02:33:22;;;;;;;;;17.75;10.50;;;;;24.97;41.43;101273.03;5115383;27;45340;-51
2022/06/16 02:36:11;;;;;;;;;8.75;8.75;;;;;24.95;41.12;101272.31;5104022;27;45435;-49
2022/06/16 02:38:59;;;;;;;;;10.00;10.00;;;;;24.95;41.26;101274.97;5110359;27;46347;-53
2022/06/16 02:41:54;;;;;;;;;10.00;9.25;;;;;24.95;41.27;101274.97;5112020;27;45855;-49
2022/06/16 02:44:33;;;;;;;;;10.00;10.00;;;;;24.95;41.29;101277.66;5100070;27;45318;-50
2022/06/16 02:47:15;;;;;;;;;12.00;10.50;;;;;24.95;41.15;101284.84;5103476;27;45377;-52
2022/06/16 02:49:58;;;;;;;;;8.50;8.50;;;;;24.95;41.19;101283.00;5109764;27;45521;-50
2022/06/16 02:52:37;;;;;;;;;9.25;9.00;;;;;24.94;41.36;101285.81;5110218;27;45760;-49
2022/06/16 02:55:16;;;;;;;;;9.00;9.00;;;;;24.94;41.32;101283.97;5106086;27;45539;-53
2022/06/16 02:57:51;;;;;;;;;11.50;10.25;;;;;24.93;41.23;101282.28;5105504;27;45443;-51
2022/06/16 03:00:22;;;;;;;;;11.75;10.75;;;;;24.92;41.12;101290.44;5108290;27;46622;-49
2022/06/16 03:02:47;;;;;;;;;13.50;11.25;;;;;24.93;41.38;101289.44;5107378;27;45748;-50
2022/06/16 03:05:14;;;;;;;;;13.50;10.75;;;;;24.93;41.23;101289.44;5113485;27;59137;-51
2022/06/16 03:07:41;;;;;;;;;10.00;8.25;;;;;24.92;41.27;101290.44;5110402;27;45465;-48
2022/06/16 03:10:07;;;;;;;;;11.00;10.75;;;;;24.90;41.10;101292.38;5105138;27;46950;-48
2022/06/16 03:12:32;;;;;;;;;10.75;8.75;;;;;24.90;41.22;101292.38;5105205;27;45497;-52
2022/06/16 03:14:58;;;;;;;;;10.50;9.75;;;;;24.91;41.32;101292.25;5106615;27;68273;-50
2022/06/16 03:17:23;;;;;;;;;12.25;10.00;;;;;24.90;41.18;101289.72;5105998;27;60583;-51
2022/06/16 03:19:49;;;;;;;;;12.50;9.75;;;;;24.90;41.33;101298.59;5107869;27;46266;-51
2022/06/16 03:22:14;;;;;;;;;11.00;11.00;;;;;24.89;41.03;101302.22;5104421;27;45523;-48
2022/06/16 03:24:40;;;;;;;;;12.00;9.25;;;;;24.91;41.16;101307.47;5105924;27;45303;-49
2022/06/16 03:27:07;;;;;;;;;14.00;11.25;;;;;24.90;41.26;101303.09;5108348;27;45377;-49
2022/06/16 03:29:32;;;;;;;;;19.00;17.50;;;;;24.87;41.11;101306.00;5104848;27;45440;-52
2022/06/16 03:31:58;;;;;;;;;29.00;26.00;;;;;24.88;41.33;101308.56;5107420;27;45634;-53
2022/06/16 03:34:24;;;;;;;;;22.50;21.25;;;;;24.87;41.11;101317.56;5108248;27;64572;-50
2022/06/16 03:36:50;;;;;;;;;24.50;18.75;;;;;24.85;41.39;101311.47;5096380;27;45464;-49
2022/06/16 03:39:15;;;;;;;;;15.50;15.50;;;;;24.86;41.08;101315.00;5112893;27;45931;-51
2022/06/16 03:41:41;;;;;;;;;16.75;15.50;;;;;24.85;41.60;101319.50;5106655;27;45385;-49
2022/06/16 03:44:06;;;;;;;;;16.00;13.50;;;;;24.83;41.32;101313.44;5101149;27;64744;-51
2022/06/16 03:46:32;;;;;;;;;11.00;11.00;;;;;24.86;41.35;101312.31;5100342;27;69901;-48
2022/06/16 03:48:57;;;;;;;;;12.50;11.00;;;;;24.84;41.33;101312.44;5104173;27;45387;-49
2022/06/16 03:51:23;;;;;;;;;13.00;12.00;;;;;24.85;41.24;101305.28;5108419;27;70869;-51
2022/06/16 03:53:48;;;;;;;;;12.00;10.25;;;;;24.85;41.02;101310.63;5108504;27;58317;-52
2022/06/16 03:56:14;;;;;;;;;12.25;12.25;;;;;24.83;41.40;101316.94;5103574;27;45401;-50
2022/06/16 03:58:40;;;;;;;;;13.75;12.00;;;;;24.83;41.12;101318.78;5102986;27;50600;-52
2022/06/16 04:01:06;;;;;;;;;13.25;11.00;;;;;24.82;41.11;101319.75;5103637;27;70395;-48
2022/06/16 04:06:16;;;;;;;;;12.50;11.25;;;;;24.82;41.19;101325.09;5105961;27;45586;-50
2022/06/16 04:08:41;;;;;;;;;14.25;12.00;;;;;24.81;41.16;101331.44;5107279;27;45403;-48
2022/06/16 04:13:52;;;;;;;;;12.75;10.75;;;;;24.79;41.20;101328.88;5107764;27;45463;-51
2022/06/16 04:16:17;;;;;;;;;13.50;10.50;;;;;24.78;41.13;101327.16;5104669;27;45420;-52
2022/06/16 04:18:43;;;;;;;;;12.50;10.25;;;;;24.78;41.27;101323.66;5107361;27;47077;-50
2022/06/16 04:21:12;;;;;;;;;16.25;13.00;;;;;24.78;41.18;101323.66;5111702;27;64944;-50
2022/06/16 04:23:38;;;;;;;;;12.50;10.75;;;;;24.77;41.16;101322.81;5094715;27;46450;-49
2022/06/16 04:26:04;;;;;;;;;16.00;12.50;;;;;24.77;41.37;101324.59;5105505;27;45408;-49
2022/06/16 04:28:29;;;;;;;;;11.50;11.50;;;;;24.76;41.02;101331.78;5105213;27;45514;-49
2022/06/16 04:30:55;;;;;;;;;12.25;10.50;;;;;24.76;40.99;101337.13;5107877;27;45508;-50
2022/06/16 04:33:20;;;;;;;;;14.75;13.00;;;;;24.76;41.21;101352.34;5112418;27;65705;-52
2022/06/16 04:35:46;;;;;;;;;14.25;12.00;;;;;24.75;41.40;101354.16;5104955;27;45571;-51
2022/06/16 04:38:11;;;;;;;;;13.75;11.75;;;;;24.74;41.34;101349.78;5102362;27;45408;-52
2022/06/16 04:40:36;;;;;;;;;13.50;10.75;;;;;24.75;41.27;101348.81;5102114;27;71482;-51
2022/06/16 04:43:02;;;;;;;;;15.75;12.00;;;;;24.70;41.18;101339.44;5110114;27;45410;-52
2022/06/16 04:45:28;;;;;;;;;13.50;11.00;;;;;24.73;40.91;101350.75;5104499;27;45462;-52
2022/06/16 04:47:53;;;;;;;;;13.00;10.50;;;;;24.73;41.02;101358.78;5101849;27;49918;-48
2022/06/16 04:50:19;;;;;;;;;11.75;10.00;;;;;24.75;40.89;101361.34;5105476;27;45266;-51
2022/06/16 04:52:46;;;;;;;;;18.75;13.75;;;;;24.73;40.93;101361.47;5106084;27;60930;-51
2022/06/16 04:55:12;;;;;;;;;13.25;11.50;;;;;24.72;41.13;101365.13;5111624;27;45615;-51
2022/06/16 04:57:37;;;;;;;;;12.75;11.00;;;;;24.71;41.18;101363.41;5109700;27;45420;-50
2022/06/16 05:00:03;;;;;;;;;11.50;9.00;;;;;24.70;41.19;101367.06;5109569;27;45275;-50
2022/06/16 05:02:29;;;;;;;;;14.50;11.75;;;;;24.68;41.52;101369.00;5096371;27;45645;-50
2022/06/16 05:04:54;;;;;;;;;11.75;10.75;;;;;24.66;41.57;101365.59;5112419;27;54713;-51
2022/06/16 05:07:19;;;;;;;;;9.50;9.50;;;;;24.68;41.49;101386.88;5112118;27;69077;-52
2022/06/16 05:09:45;;;;;;;;;11.25;9.25;;;;;24.67;41.51;101385.19;5109055;27;47225;-52
2022/06/16 05:12:10;;;;;;;;;9.50;9.50;;;;;24.66;41.77;101383.47;5103721;27;46015;-52
2022/06/16 05:14:36;;;;;;;;;10.25;10.00;;;;;24.66;41.47;101387.00;5105624;27;45477;-52
2022/06/16 05:17:01;;;;;;;;;13.50;12.25;;;;;24.67;41.79;101393.22;5109842;27;47037;-51
2022/06/16 05:19:31;;;;;;;;;10.25;9.25;;;;;24.66;41.68;101396.84;5111858;27;45437;-52
2022/06/16 05:21:57;;;;;;;;;12.25;10.50;;;;;24.66;41.62;101402.22;5105300;27;45651;-50
2022/06/16 05:24:23;;;;;;;;;10.50;9.25;;;;;24.66;41.67;101407.56;5114229;27;45387;-50
2022/06/16 05:26:48;;;;;;;;;11.25;10.00;;;;;24.67;41.71;101406.59;5114407;27;45544;-51
2022/06/16 05:29:13;;;;;;;;;11.75;11.75;;;;;24.68;41.74;101421.69;5115760;27;64092;-49
2022/06/16 05:31:39;;;;;;;;;16.25;11.00;;;;;24.69;41.63;101420.72;5104767;27;58635;-50
2022/06/16 05:34:04;;;;;;;;;10.50;10.00;;;;;24.68;41.86;101424.34;5106526;27;45318;-48
2022/06/16 05:36:29;;;;;;;;;11.75;9.00;;;;;24.67;41.66;101436.91;5102687;27;71105;-50
2022/06/16 05:38:55;;;;;;;;;11.00;9.25;;;;;24.68;41.71;101440.41;5106737;27;72887;-51
2022/06/16 05:41:21;;;;;;;;;9.00;9.00;;;;;24.66;42.12;101443.19;5106600;27;63282;-50
2022/06/16 05:43:46;;;;;;;;;13.00;9.75;;;;;24.66;41.66;101450.38;5105877;27;45712;-55
2022/06/16 05:46:19;;;;;;;;;17.00;14.75;;;;;24.69;41.68;101458.19;5104619;27;73728;-57
2022/06/16 05:48:44;;;;;;;;;18.50;14.25;;;;;24.70;41.29;101471.47;5105476;27;45805;-56
2022/06/16 05:51:11;;;;;;;;;16.75;13.00;;;;;24.71;41.19;101470.47;5108831;27;45635;-56
2022/06/16 05:53:38;;;;;;;;;17.25;14.50;;;;;24.71;41.19;101464.28;5106729;27;45515;-56
2022/06/16 05:56:03;;;;;;;;;17.00;14.00;;;;;24.71;41.39;101465.13;5097918;27;48269;-55
2022/06/16 05:58:29;;;;;;;;;16.25;15.00;;;;;24.70;41.36;101460.75;5110683;27;45469;-55
2022/06/16 06:00:55;;;;;;;;;15.75;14.00;;;;;24.71;41.18;101462.44;5103573;27;45317;-56
2022/06/16 06:03:20;;;;;;;;;14.75;13.25;;;;;24.70;41.03;101471.47;5103087;27;45539;-56
2022/06/16 06:05:46;;;;;;;;;14.75;14.75;;;;;24.69;41.31;101468.91;5105094;27;46583;-56
2022/06/16 06:16:25;;;;;;;;;15.50;15.50;;;;;24.63;40.87;101473.75;5100294;27;45566;-57
2022/06/16 06:18:50;;;;;;;;;15.25;13.50;;;;;24.60;40.86;101475.78;5096774;27;45419;-56
2022/06/16 06:21:16;;;;;;;;;16.00;15.25;;;;;24.59;40.77;101476.75;5106037;27;45418;-56
2022/06/16 06:23:41;;;;;;;;;18.50;16.00;;;;;24.58;40.32;101488.44;5103523;27;69380;-56
2022/06/16 06:26:07;;;;;;;;;17.25;15.00;;;;;24.52;40.54;101478.97;5103356;27;45841;-57
2022/06/16 06:28:32;;;;;;;;;16.75;14.50;;;;;24.53;40.57;101490.56;5110232;27;54040;-55
2022/06/16 06:30:57;;;;;;;;;17.00;13.75;;;;;24.49;40.59;101487.25;5106783;27;57000;-55
2022/06/16 06:33:23;;;;;;;;;16.25;14.50;;;;;24.51;40.88;101497.88;5107307;27;45551;-57
2022/06/16 06:35:48;;;;;;;;;13.75;13.50;;;;;24.51;40.23;101509.41;5102169;27;72776;-54
2022/06/16 06:38:14;;;;;;;;;20.50;14.50;;;;;24.50;40.59;101504.16;5110562;27;69624;-55
2022/06/16 06:40:40;;;;;;;;;14.75;14.00;;;;;24.51;40.71;101509.41;5104067;27;45408;-56
2022/06/16 06:43:05;;;;;;;;;18.25;13.25;;;;;24.51;40.11;101505.88;5108021;27;45640;-55
2022/06/16 06:45:31;;;;;;;;;16.75;13.00;;;;;24.51;39.99;101514.75;5107375;27;45412;-55
2022/06/16 06:47:57;;;;;;;;;15.75;13.00;;;;;24.49;40.11;101508.69;5108615;27;45507;-57
2022/06/16 06:50:29;;;;;;;;;22.50;15.25;;;;;24.51;40.27;101504.06;5108499;27;45573;-54
2022/06/16 06:52:55;;;;;;;;;18.25;15.75;;;;;24.50;40.23;101514.88;5106009;27;45702;-56
2022/06/16 06:55:21;;;;;;;;;17.00;16.00;;;;;24.52;40.50;101503.06;5108538;27;47813;-54
2022/06/16 06:57:48;;;;;;;;;18.75;14.00;;;;;24.54;40.29;101511.03;5109810;27;45454;-55
2022/06/16 07:00:18;;;;;;;;;13.75;11.50;;;;;24.54;40.37;101506.56;5089690;27;45441;-46
2022/06/16 07:02:44;;;;;;;;;15.25;13.00;;;;;24.56;40.52;101514.44;5109875;27;45504;-52
2022/06/16 07:05:10;;;;;;;;;17.25;14.50;;;;;24.58;40.78;101516.03;5103179;27;69284;-52
2022/06/16 07:07:36;;;;;;;;;14.25;12.25;;;;;24.60;41.03;101519.47;5099223;27;45389;-50
2022/06/16 07:10:06;;;;;;;;;15.50;12.75;;;;;24.63;41.29;101518.41;5112264;27;45396;-49
2022/06/16 07:12:34;;;;;;;;;14.75;12.75;;;;;24.64;41.04;101515.56;5104588;27;45400;-48
2022/06/16 07:14:59;;;;;;;;;16.00;14.25;;;;;24.67;41.21;101522.53;5106530;27;46338;-51
2022/06/16 07:17:25;;;;;;;;;15.75;11.00;;;;;24.68;41.19;101526.06;5099347;27;45349;-49
2022/06/16 07:19:51;;;;;;;;;13.75;11.25;;;;;24.72;41.34;101540.91;5108577;27;45483;-51
2022/06/16 07:22:17;;;;;;;;;18.50;13.00;;;;;24.74;41.28;101539.00;5109976;27;45279;-52
2022/06/16 07:24:42;;;;;;;;;17.00;11.50;;;;;24.75;41.33;101543.38;5101171;27;45448;-48
2022/06/16 07:27:09;;;;;;;;;15.25;11.00;;;;;24.75;41.34;101552.25;5104016;27;65802;-50
2022/06/16 07:29:34;;;;;;;;;13.00;10.00;;;;;24.75;41.41;101554.94;5101163;27;46172;-51
2022/06/16 07:32:00;;;;;;;;;14.00;11.00;;;;;24.77;41.69;101552.13;5102429;27;45986;-50
2022/06/16 07:34:26;;;;;;;;;13.25;12.00;;;;;24.78;41.51;101554.72;5106778;27;46759;-51
2022/06/16 07:36:52;;;;;;;;;14.25;12.00;;;;;24.80;41.20;101557.28;5100787;27;45302;-51
2022/06/16 07:39:17;;;;;;;;;12.75;11.00;;;;;24.81;41.22;101556.31;5100095;27;45483;-50
2022/06/16 07:41:42;;;;;;;;;16.75;10.50;;;;;24.82;41.54;101556.22;5102381;27;45459;-53
2022/06/16 07:44:14;;;;;;;;;9.50;9.50;;;;;24.84;41.31;101558.75;5101837;27;69181;-50
2022/06/16 07:46:44;;;;;;;;;12.25;10.75;;;;;24.86;41.40;101561.31;5101083;27;45743;-50
2022/06/16 07:49:11;;;;;;;;;12.25;9.75;;;;;24.86;41.38;101554.16;5101027;27;45313;-53
2022/06/16 07:51:37;;;;;;;;;11.00;9.50;;;;;24.88;41.24;101559.38;5102195;27;45341;-51
2022/06/16 07:54:03;;;;;;;;;11.50;11.25;;;;;24.88;41.31;101565.59;5100604;27;46347;-53
2022/06/16 07:56:28;;;;;;;;;14.75;11.50;;;;;24.89;41.30;101563.78;5100719;27;45200;-53
2022/06/16 07:58:54;;;;;;;;;12.75;10.75;;;;;24.90;41.31;101558.31;5099758;27;69060;-53
2022/06/16 08:01:19;;;;;;;;;10.00;8.25;;;;;24.91;41.39;101553.81;5105870;27;45827;-51
2022/06/16 08:03:44;;;;;;;;;16.00;10.00;;;;;24.91;41.22;101557.31;5115993;27;47202;-48
2022/06/16 08:06:17;;;;;;;;;11.25;8.25;;;;;24.92;41.06;101556.38;5104137;27;45444;-48
2022/06/16 08:08:43;;;;;;;;;10.25;10.00;;;;;24.92;41.14;101553.69;5113695;27;45561;-53
2022/06/16 08:13:55;;;;;;;;;12.50;10.00;;;;;24.94;41.38;101557.09;5100484;27;45276;-50
2022/06/16 08:16:20;;;;;;;;;16.50;10.00;;;;;24.90;41.06;101562.81;5102395;27;45405;-50
2022/06/16 08:18:45;;;;;;;;;7.50;7.50;;;;;24.94;40.94;101565.13;5106874;27;66159;-49
2022/06/16 08:21:10;;;;;;;;;7.00;7.00;;;;;24.95;41.04;101566.00;5105098;27;68791;-52
2022/06/16 08:23:36;;;;;;;;;11.50;9.00;;;;;24.95;41.06;101569.53;5109975;27;67635;-51
2022/06/16 08:26:03;;;;;;;;;11.25;9.75;;;;;24.96;40.96;101563.19;5100862;27;45491;-51
2022/06/16 08:28:28;;;;;;;;;9.25;9.00;;;;;24.97;40.95;101564.06;5103482;27;45676;-52
2022/06/16 08:30:53;;;;;;;;;9.50;8.50;;;;;24.97;41.09;101566.75;5105499;27;46685;-52
2022/06/16 08:33:19;;;;;;;;;10.50;8.50;;;;;24.98;40.66;101555.03;5116018;27;50511;-48
2022/06/16 08:35:46;;;;;;;;;12.00;10.00;;;;;24.98;40.97;101561.28;5112398;27;45372;-48
2022/06/16 08:38:12;;;;;;;;;10.00;10.00;;;;;24.98;40.87;101563.06;5107385;27;45505;-52
2022/06/16 08:40:46;;;;;;;;;9.25;8.25;;;;;24.98;40.79;101563.97;5106732;27;45542;-52
2022/06/16 08:43:32;;;;;;;;;10.25;8.00;;;;;24.99;40.79;101565.66;5114699;27;47280;-50
2022/06/16 08:46:00;;;;;;;;;17.00;10.50;;;;;24.99;40.65;101562.97;5108059;27;45361;-50
2022/06/16 08:48:29;;;;;;;;;10.75;9.25;;;;;24.99;40.58;101557.63;5108309;27;46341;-50
2022/06/16 08:50:58;;;;;;;;;10.50;8.50;;;;;25.00;40.67;101564.69;5109334;27;45501;-52
2022/06/16 08:53:30;;;;;;;;;10.00;8.00;;;;;25.01;41.10;101569.06;5109012;27;45390;-49
2022/06/16 08:56:00;;;;;;;;;7.25;7.00;;;;;25.01;40.53;101568.22;5101459;27;45382;-53
2022/06/16 08:58:35;;;;;;;;;10.50;9.75;;;;;25.00;40.97;101572.72;5112560;27;45336;-50
2022/06/16 09:01:07;;;;;;;;;9.75;9.25;;;;;25.03;40.75;101574.31;5108492;27;45488;-47
2022/06/16 09:04:00;;;;;;;;;7.75;7.25;;;;;25.03;40.70;101576.97;5098467;27;48845;-49
2022/06/16 09:07:04;;;;;;;;;8.25;8.25;;;;;25.04;40.63;101567.13;5112297;27;45778;-53
2022/06/16 09:12:50;;;;;;;;;10.00;8.25;;;;;25.04;40.63;101567.13;5105490;27;45338;-49
2022/06/16 09:15:39;;;;;;;;;7.25;7.25;;;;;25.05;40.76;101568.84;5103968;27;46178;-50
2022/06/16 09:18:25;;;;;;;;;9.50;9.25;;;;;25.03;40.81;101566.28;5107817;27;45479;-48
2022/06/16 09:21:16;;;;;;;;;11.50;8.50;;;;;25.06;40.57;101567.88;5104033;27;45686;-51
2022/06/16 09:24:05;;;;;;;;;11.75;8.75;;;;;25.06;40.49;101570.56;5110487;27;45301;-51
2022/06/16 09:26:35;;;;;;;;;10.50;8.25;;;;;25.07;40.68;101574.94;5105821;27;48826;-50
2022/06/16 09:29:10;;;;;;;;;10.75;7.50;;;;;25.08;40.67;101569.47;5112187;27;46278;-52
2022/06/16 09:31:48;;;;;;;;;8.50;6.50;;;;;25.08;40.45;101573.97;5100573;27;45404;-51
2022/06/16 09:34:33;;;;;;;;;7.25;7.00;;;;;25.10;40.42;101575.56;5086746;27;45361;-50
2022/06/16 09:37:05;;;;;;;;;8.25;8.25;;;;;25.11;40.60;101581.78;5104449;27;46388;-51
2022/06/16 09:39:35;;;;;;;;;8.00;7.25;;;;;25.10;40.45;101580.06;5111912;27;45391;-51
2022/06/16 09:45:17;;;;;;;;;7.25;7.25;;;;;25.16;40.37;101568.88;5111563;27;45393;-52
2022/06/16 09:47:52;;;;;;;;;9.00;7.25;;;;;25.18;40.67;101566.97;5115999;27;47018;-53
2022/06/16 09:50:23;;;;;;;;;7.75;7.75;;;;;25.19;40.65;101560.59;5119741;27;45587;-52
2022/06/16 09:53:11;;;;;;;;;9.25;8.00;;;;;25.19;40.60;101558.78;5112978;27;45355;-52
2022/06/16 09:55:40;;;;;;;;;9.25;7.25;;;;;25.21;40.51;101550.63;5089866;27;47419;-51
2022/06/16 09:58:16;;;;;;;;;6.50;6.50;;;;;25.23;40.64;101554.03;5105718;27;46051;-51
2022/06/16 10:00:42;;;;;;;;;7.25;6.25;;;;;25.25;40.71;101548.59;5112712;27;45410;-51
2022/06/16 10:03:20;;;;;;;;;10.00;7.00;;;;;25.28;40.57;101545.69;5089361;27;45350;-50
2022/06/16 10:06:06;;;;;;;;;11.25;7.75;;;;;25.31;40.49;101542.78;5110107;27;45533;-51
2022/06/16 10:08:58;;;;;;;;;8.00;7.00;;;;;25.35;40.59;101542.41;5113925;27;45485;-52
2022/06/16 10:11:41;;;;;;;;;9.00;8.00;;;;;25.38;40.73;101536.84;5111712;27;45597;-50
2022/06/16 10:14:24;;;;;;;;;7.25;6.75;;;;;25.43;40.63;101549.00;5115504;27;45323;-53
2022/06/16 10:16:59;;;;;;;;;6.75;5.50;;;;;25.46;40.35;101548.78;5106794;27;45475;-51
2022/06/16 10:19:27;;;;;;;;;6.75;6.75;;;;;25.49;40.59;101554.75;5116257;27;46086;-53
2022/06/16 10:21:52;;;;;;;;;7.75;5.25;;;;;25.52;40.49;101559.03;5104952;27;45500;-51
2022/06/16 10:24:20;;;;;;;;;8.75;7.00;;;;;25.51;40.58;101547.44;5107339;27;45324;-52
2022/06/16 10:26:45;;;;;;;;;8.00;6.75;;;;;25.63;40.51;101555.53;5102818;27;45618;-53
2022/06/16 10:29:21;;;;;;;;;6.50;6.50;;;;;25.68;40.19;101562.22;5114772;27;61724;-52
2022/06/16 10:31:48;;;;;;;;;6.25;6.25;;;;;25.73;40.48;101554.69;5107168;27;45769;-51
2022/06/16 10:34:43;;;;;;;;;8.50;5.25;;;;;25.79;40.56;101547.97;5099092;27;45290;-50
2022/06/16 10:37:20;;;;;;;;;6.50;4.75;;;;;25.84;40.46;101551.16;5106443;27;45303;-47
2022/06/16 10:39:56;;;;;;;;;7.00;5.25;;;;;25.88;40.16;101543.72;5118774;27;46132;-50
2022/06/16 10:42:28;;;;;;;;;6.00;6.00;;;;;25.93;40.13;101544.22;5111861;27;45227;-52
2022/06/16 10:45:05;;;;;;;;;7.00;6.75;;;;;25.95;40.13;101543.13;5115943;27;45442;-50
2022/06/16 10:47:34;;;;;;;;;4.00;4.00;;;;;25.97;39.68;101543.03;5103474;27;45489;-53
2022/06/16 10:50:05;;;;;;;;;7.50;5.75;;;;;26.02;39.93;101542.66;5103990;27;46083;-51
2022/06/16 10:52:34;;;;;;;;;6.00;5.00;;;;;26.03;40.01;101530.94;5102898;27;45533;-52
2022/06/16 10:55:19;;;;;;;;;6.00;6.00;;;;;26.05;39.92;101534.38;5106079;27;45498;-53
2022/06/16 10:57:58;;;;;;;;;5.50;5.50;;;;;26.08;39.83;101540.34;5113298;27;45479;-52
2022/06/16 11:00:24;;;;;;;;;8.75;6.00;;;;;26.09;39.83;101538.50;5102844;27;46176;-52
2022/06/16 11:03:15;;;;;;;;;10.00;6.25;;;;;26.12;39.63;101536.44;5110026;27;45265;-52
2022/06/16 11:05:57;;;;;;;;;5.50;3.75;;;;;26.14;39.73;101539.84;5107279;27;45352;-51
2022/06/16 11:08:24;;;;;;;;;8.25;5.75;;;;;26.18;39.45;101537.75;5113962;27;45929;-53
2022/06/16 11:10:55;;;;;;;;;8.75;6.00;;;;;26.20;39.63;101541.16;5110191;27;46160;-53
2022/06/16 11:13:27;;;;;;;;;6.25;5.25;;;;;26.26;39.56;101542.50;5113191;27;45679;-52
2022/06/16 11:15:53;;;;;;;;;5.00;5.00;;;;;26.28;39.70;101533.38;5106252;27;45325;-54
2022/06/16 11:18:22;;;;;;;;;5.25;5.25;;;;;26.29;39.71;101537.78;5110709;27;45274;-53
2022/06/16 11:20:50;;;;;;;;;8.50;6.00;;;;;26.34;39.25;101534.69;5092700;27;47280;-52
2022/06/16 11:23:21;;;;;;;;;5.00;5.00;;;;;26.36;39.59;101532.72;5100348;27;45722;-50
2022/06/16 11:25:54;;;;;;;;;7.00;5.75;;;;;26.39;39.30;101534.34;5108824;27;45751;-52
2022/06/16 11:28:21;;;;;;;;;5.50;5.00;;;;;26.40;39.42;101538.69;5101187;27;45294;-53
2022/06/16 11:30:50;;;;;;;;;7.25;5.50;;;;;26.42;39.07;101551.03;5109561;27;47399;-51
2022/06/16 11:36:21;;;;;;;;;5.25;4.00;;;;;26.45;39.23;101544.56;5101455;27;45466;-52
2022/06/16 11:38:55;;;;;;;;;5.00;5.00;;;;;26.46;39.20;101536.38;5105687;27;45258;-53
2022/06/16 11:41:23;;;;;;;;;5.50;5.50;;;;;26.46;39.33;101531.00;5102398;27;45423;-50
2022/06/16 11:44:30;;;;;;;;;5.00;3.75;;;;;26.49;39.26;101538.81;5103933;27;45677;-53
2022/06/16 11:47:05;;;;;;;;;5.00;5.00;;;;;26.50;39.36;101532.47;5100797;27;45292;-53
2022/06/16 11:49:30;;;;;;;;;4.25;4.00;;;;;26.51;39.01;101533.34;5109663;27;45392;-52
2022/06/16 11:52:07;;;;;;;;;6.75;6.00;;;;;26.52;39.02;101541.25;5102725;27;46245;-53
2022/06/16 11:54:52;;;;;;;;;6.50;6.50;;;;;26.53;39.29;101542.94;5102032;27;45876;-52
2022/06/16 11:57:20;;;;;;;;;3.25;3.25;;;;;26.53;39.37;101540.25;5114718;27;45478;-53
2022/06/16 12:00:22;;;;;;;;;4.75;4.75;;;;;26.55;39.00;101536.63;5111365;27;45481;-53